Time;durP1;ratioP1;P1;durP2;ratioP2;P2;SDS_P1;SDS_P2;PMS_P1;PMS_P2;Temp;Humidity;BMP_temperature;BMP_pressure;BME280_temperature;BME280_humidity;BME280_pressure;Samples;Min_cycle;Max_cycle;Signal;HPM_P1;HPM_P2
2022/08/29 06:19:03;;;;;;;12.55;6.07;;;;;;;;;;4761803;30;20577;-68
2022/08/29 06:21:29;;;;;;;12.55;5.68;;;;;;;;;;4765402;30;20670;-68
2022/08/29 06:23:56;;;;;;;15.32;5.30;;;;;;;;;;4782607;29;20036;-68
2022/08/29 06:26:23;;;;;;;17.88;5.97;;;;;;;;;;4768313;30;20024;-67
2022/08/29 06:28:49;;;;;;;13.02;5.45;;;;;;;;;;4765502;30;20587;-68
2022/08/29 06:31:20;;;;;;;17.80;5.80;;;;;;;;;;4767632;30;20032;-68
2022/08/29 06:33:47;;;;;;;12.32;6.07;;;;;;;;;;4781511;30;20046;-67
2022/08/29 06:36:13;;;;;;;11.65;5.80;;;;;;;;;;4767559;30;20050;-68
2022/08/29 06:38:39;;;;;;;11.52;5.82;;;;;;;;;;4782739;30;20038;-68
2022/08/29 06:41:10;;;;;;;11.07;6.28;;;;;;;;;;4768117;30;20035;-67
2022/08/29 06:43:37;;;;;;;9.10;5.55;;;;;;;;;;4768152;30;20028;-68
2022/08/29 06:46:03;;;;;;;8.85;5.63;;;;;;;;;;4769066;30;20097;-68
2022/08/29 06:48:30;;;;;;;11.23;5.68;;;;;;;;;;4771716;30;20020;-68
2022/08/29 06:50:56;;;;;;;11.52;5.88;;;;;;;;;;4771966;30;20031;-68
2022/08/29 06:53:22;;;;;;;7.72;5.47;;;;;;;;;;4772096;30;20024;-68
2022/08/29 06:55:49;;;;;;;10.82;5.28;;;;;;;;;;4771334;30;20054;-67
2022/08/29 06:58:15;;;;;;;10.25;5.20;;;;;;;;;;4771722;30;20063;-68
2022/08/29 07:00:42;;;;;;;9.13;6.13;;;;;;;;;;4771990;30;20385;-68
2022/08/29 07:03:09;;;;;;;9.23;6.22;;;;;;;;;;4768837;30;20042;-68
2022/08/29 07:05:36;;;;;;;8.60;6.03;;;;;;;;;;4770747;30;20043;-68
2022/08/29 07:08:03;;;;;;;7.03;4.95;;;;;;;;;;4771827;29;20032;-68
2022/08/29 07:10:29;;;;;;;6.25;4.85;;;;;;;;;;4770203;30;20039;-68
2022/08/29 07:12:55;;;;;;;6.25;4.63;;;;;;;;;;4771362;30;20028;-68
2022/08/29 07:15:23;;;;;;;9.63;5.25;;;;;;;;;;4771173;30;20040;-68
2022/08/29 07:17:49;;;;;;;4.68;4.30;;;;;;;;;;4793401;29;20042;-68
2022/08/29 07:20:17;;;;;;;5.53;4.97;;;;;;;;;;4807674;29;20603;-68
2022/08/29 07:22:46;;;;;;;20.10;10.00;;;;;;;;;;4807584;29;20034;-68
2022/08/29 07:25:12;;;;;;;6.20;4.25;;;;;;;;;;4806363;29;20045;-68
2022/08/29 07:27:38;;;;;;;12.93;5.93;;;;;;;;;;4807476;29;20031;-68
2022/08/29 07:30:05;;;;;;;9.10;4.68;;;;;;;;;;4807434;29;20031;-68
2022/08/29 07:32:32;;;;;;;7.90;4.93;;;;;;;;;;4805255;29;20038;-68
2022/08/29 07:34:58;;;;;;;5.18;4.68;;;;;;;;;;4806757;29;20034;-68
2022/08/29 07:37:24;;;;;;;5.25;4.68;;;;;;;;;;4804596;29;20415;-67
2022/08/29 07:39:51;;;;;;;5.00;4.22;;;;;;;;;;4806458;29;20045;-68
2022/08/29 07:42:17;;;;;;;11.00;4.15;;;;;;;;;;4806718;29;20035;-68
2022/08/29 07:44:43;;;;;;;5.78;4.10;;;;;;;;;;4806832;29;20030;-68
2022/08/29 07:47:10;;;;;;;4.82;4.32;;;;;;;;;;4806387;29;20027;-68
2022/08/29 07:49:37;;;;;;;7.55;4.80;;;;;;;;;;4806413;29;20056;-68
2022/08/29 07:52:03;;;;;;;6.75;4.32;;;;;;;;;;4806329;29;20034;-68
2022/08/29 07:54:30;;;;;;;5.03;4.53;;;;;;;;;;4809569;29;20030;-68
2022/08/29 07:56:56;;;;;;;5.82;4.57;;;;;;;;;;4805847;29;20027;-68
2022/08/29 07:59:23;;;;;;;5.32;4.82;;;;;;;;;;4803513;29;20079;-68
2022/08/29 08:01:49;;;;;;;5.75;4.43;;;;;;;;;;4808706;29;20022;-68
2022/08/29 08:04:16;;;;;;;5.75;4.78;;;;;;;;;;4807241;29;20027;-68
2022/08/29 08:06:42;;;;;;;4.93;4.53;;;;;;;;;;4806441;29;20038;-68
2022/08/29 08:09:09;;;;;;;6.88;3.90;;;;;;;;;;4805816;29;20039;-68
2022/08/29 08:11:36;;;;;;;6.90;4.32;;;;;;;;;;4809386;29;20075;-68
2022/08/29 08:14:02;;;;;;;5.05;4.30;;;;;;;;;;4823682;29;20521;-68
2022/08/29 08:16:29;;;;;;;5.00;4.00;;;;;;;;;;4824000;29;20492;-68
2022/08/29 08:18:56;;;;;;;4.28;3.90;;;;;;;;;;4824062;29;20046;-68
2022/08/29 08:21:23;;;;;;;4.93;4.20;;;;;;;;;;4810793;29;20074;-66
2022/08/29 08:23:50;;;;;;;9.30;4.20;;;;;;;;;;4806275;29;20026;-66
2022/08/29 08:26:17;;;;;;;4.78;3.80;;;;;;;;;;4806366;29;20033;-66
2022/08/29 08:28:44;;;;;;;3.40;3.10;;;;;;;;;;4805910;29;20388;-65
2022/08/29 08:31:11;;;;;;;4.80;3.90;;;;;;;;;;4806052;29;20039;-65
2022/08/29 08:33:39;;;;;;;5.03;3.60;;;;;;;;;;4805339;29;20027;-66
2022/08/29 08:36:24;;;;;;;4.45;4.05;;;;;;;;;;4804176;29;20460;-66
2022/08/29 08:38:51;;;;;;;5.13;3.85;;;;;;;;;;4805762;29;20027;-65
2022/08/29 08:41:38;;;;;;;4.15;3.75;;;;;;;;;;4806277;29;20023;-65
2022/08/29 08:44:05;;;;;;;5.50;3.45;;;;;;;;;;4809787;29;20039;-67
2022/08/29 08:46:41;;;;;;;4.97;3.55;;;;;;;;;;4805701;29;20396;-68
2022/08/29 08:49:16;;;;;;;3.88;3.50;;;;;;;;;;4805759;29;20053;-66
2022/08/29 08:51:46;;;;;;;4.53;3.55;;;;;;;;;;4805999;29;20029;-65
2022/08/29 08:54:19;;;;;;;4.32;3.60;;;;;;;;;;4805589;29;20038;-66
2022/08/29 08:56:49;;;;;;;7.72;3.53;;;;;;;;;;4805536;29;20043;-65
2022/08/29 08:59:22;;;;;;;5.85;3.30;;;;;;;;;;4805047;29;20030;-66
2022/08/29 09:01:54;;;;;;;5.45;3.83;;;;;;;;;;4804980;29;20042;-65
2022/08/29 09:04:30;;;;;;;4.07;3.67;;;;;;;;;;4819565;29;20034;-66
2022/08/29 09:06:59;;;;;;;5.90;3.60;;;;;;;;;;4805259;29;20019;-65
2022/08/29 09:09:31;;;;;;;6.43;3.90;;;;;;;;;;4804936;29;20392;-65
2022/08/29 09:12:03;;;;;;;5.40;4.32;;;;;;;;;;4805071;29;20083;-65
2022/08/29 09:14:36;;;;;;;7.78;4.40;;;;;;;;;;4804605;29;20038;-65
2022/08/29 09:17:02;;;;;;;4.32;3.92;;;;;;;;;;4805320;29;20558;-67
2022/08/29 09:19:30;;;;;;;4.93;4.07;;;;;;;;;;4805288;29;20031;-68
2022/08/29 09:22:06;;;;;;;5.80;3.90;;;;;;;;;;4805036;29;20040;-68
2022/08/29 09:24:35;;;;;;;3.83;3.25;;;;;;;;;;4804831;29;20035;-69
2022/08/29 09:27:02;;;;;;;6.73;3.80;;;;;;;;;;4804832;29;20041;-68
2022/08/29 09:29:29;;;;;;;6.05;3.63;;;;;;;;;;4803229;29;20035;-68
2022/08/29 09:32:04;;;;;;;4.03;3.70;;;;;;;;;;4805633;29;20087;-68
2022/08/29 09:34:43;;;;;;;4.32;3.70;;;;;;;;;;4804424;29;20437;-68
2022/08/29 09:37:21;;;;;;;3.65;3.30;;;;;;;;;;4805076;29;20039;-68
2022/08/29 09:40:05;;;;;;;5.07;3.25;;;;;;;;;;4804552;29;20041;-67
2022/08/29 09:42:36;;;;;;;6.53;3.50;;;;;;;;;;4804980;29;20035;-68
2022/08/29 09:45:23;;;;;;;3.88;2.97;;;;;;;;;;4805166;29;20041;-68
2022/08/29 09:48:06;;;;;;;5.72;2.80;;;;;;;;;;4804676;29;20049;-68
2022/08/29 09:50:33;;;;;;;5.82;3.25;;;;;;;;;;4804874;29;20060;-64
2022/08/29 09:53:00;;;;;;;4.50;3.40;;;;;;;;;;4804732;29;20027;-63
2022/08/29 09:55:28;;;;;;;9.20;3.17;;;;;;;;;;4804413;29;20041;-65
2022/08/29 09:57:56;;;;;;;4.70;2.85;;;;;;;;;;4804098;29;20039;-65
2022/08/29 10:00:25;;;;;;;10.07;3.30;;;;;;;;;;4804422;29;20049;-66
2022/08/29 10:02:53;;;;;;;6.00;3.38;;;;;;;;;;4804441;29;20035;-72
2022/08/29 10:05:46;;;;;;;6.95;3.13;;;;;;;;;;4805280;29;20047;-76
2022/08/29 10:08:35;;;;;;;3.40;3.08;;;;;;;;;;4802958;29;20039;-76
2022/08/29 10:11:03;;;;;;;5.15;3.03;;;;;;;;;;4804498;29;20408;-75
2022/08/29 10:13:36;;;;;;;3.85;3.15;;;;;;;;;;4804913;29;20492;-76
2022/08/29 10:16:11;;;;;;;3.67;3.05;;;;;;;;;;4804730;29;20449;-77
2022/08/29 10:18:43;;;;;;;5.88;3.33;;;;;;;;;;4803474;29;20512;-76
2022/08/29 10:21:23;;;;;;;3.97;2.60;;;;;;;;;;4804771;29;20071;-76
2022/08/29 10:23:58;;;;;;;4.05;2.47;;;;;;;;;;4808422;29;20033;-76
2022/08/29 10:26:25;;;;;;;5.00;2.85;;;;;;;;;;4807401;29;20031;-76
2022/08/29 10:29:03;;;;;;;3.70;2.45;;;;;;;;;;4807984;29;20026;-76
2022/08/29 10:31:38;;;;;;;4.15;2.65;;;;;;;;;;4806995;29;20038;-76
2022/08/29 10:34:04;;;;;;;4.82;2.70;;;;;;;;;;4808661;29;20045;-77
2022/08/29 10:36:32;;;;;;;4.47;2.47;;;;;;;;;;4807505;29;20051;-77
2022/08/29 10:39:15;;;;;;;4.10;2.53;;;;;;;;;;4803302;29;20027;-78
2022/08/29 10:41:44;;;;;;;5.32;3.03;;;;;;;;;;4805704;29;20043;-77
2022/08/29 10:44:29;;;;;;;3.67;2.83;;;;;;;;;;4798876;29;20038;-77
2022/08/29 10:47:23;;;;;;;6.47;3.05;;;;;;;;;;4789360;30;20039;-77
2022/08/29 10:50:21;;;;;;;6.28;2.60;;;;;;;;;;4789587;29;20031;-77
2022/08/29 10:52:56;;;;;;;3.45;2.63;;;;;;;;;;4769301;30;20056;-77
2022/08/29 10:55:38;;;;;;;3.72;2.75;;;;;;;;;;4769953;30;20056;-77
2022/08/29 10:58:07;;;;;;;4.28;2.75;;;;;;;;;;4787010;30;20448;-77
2022/08/29 11:00:43;;;;;;;3.83;2.90;;;;;;;;;;4787180;30;20045;-78
2022/08/29 11:03:24;;;;;;;3.95;2.50;;;;;;;;;;4786578;30;20412;-77
2022/08/29 11:05:54;;;;;;;3.10;2.80;;;;;;;;;;4786938;30;20424;-77
2022/08/29 11:08:27;;;;;;;2.95;2.53;;;;;;;;;;4786778;30;20043;-77
2022/08/29 11:10:53;;;;;;;4.30;3.00;;;;;;;;;;4786536;30;20043;-77
2022/08/29 11:13:22;;;;;;;6.70;2.75;;;;;;;;;;4786997;30;20032;-77
2022/08/29 11:15:55;;;;;;;4.63;2.72;;;;;;;;;;4786648;30;20039;-77
2022/08/29 11:18:39;;;;;;;3.58;2.78;;;;;;;;;;4786324;30;20077;-77
2022/08/29 11:21:24;;;;;;;3.13;2.45;;;;;;;;;;4786279;30;21162;-77
2022/08/29 11:23:51;;;;;;;2.72;2.53;;;;;;;;;;4785911;30;20621;-77
2022/08/29 11:26:31;;;;;;;3.35;2.70;;;;;;;;;;4801282;29;20046;-78
2022/08/29 11:28:57;;;;;;;5.40;3.00;;;;;;;;;;4802352;29;20436;-77
2022/08/29 11:31:37;;;;;;;3.38;2.70;;;;;;;;;;4807489;29;20037;-77
2022/08/29 11:34:19;;;;;;;7.55;2.70;;;;;;;;;;4806951;29;20027;-77
2022/08/29 11:36:55;;;;;;;3.15;2.70;;;;;;;;;;4807239;29;20045;-77
2022/08/29 11:39:40;;;;;;;3.33;2.85;;;;;;;;;;4806728;29;20030;-71
2022/08/29 11:42:09;;;;;;;3.63;3.20;;;;;;;;;;4806904;29;20037;-71
2022/08/29 11:44:39;;;;;;;3.33;2.95;;;;;;;;;;4807425;29;20033;-70
2022/08/29 11:47:24;;;;;;;4.88;2.67;;;;;;;;;;4806361;29;20433;-71
2022/08/29 11:49:51;;;;;;;3.53;2.97;;;;;;;;;;4796645;29;20556;-71
2022/08/29 11:52:19;;;;;;;5.80;3.05;;;;;;;;;;4806981;29;20035;-69
2022/08/29 11:54:48;;;;;;;5.72;3.10;;;;;;;;;;4806820;29;20038;-71
2022/08/29 11:57:15;;;;;;;5.95;2.70;;;;;;;;;;4806627;29;20493;-73
2022/08/29 11:59:50;;;;;;;5.05;2.72;;;;;;;;;;4806248;29;20031;-73
2022/08/29 12:02:31;;;;;;;6.43;3.38;;;;;;;;;;4806728;29;20041;-73
2022/08/29 12:05:02;;;;;;;2.70;2.50;;;;;;;;;;4804424;29;20019;-77
2022/08/29 12:07:36;;;;;;;4.25;2.72;;;;;;;;;;4818356;29;20039;-76
2022/08/29 12:10:05;;;;;;;5.30;2.85;;;;;;;;;;4820600;29;20440;-75
2022/08/29 12:12:45;;;;;;;3.42;2.72;;;;;;;;;;4806492;29;20035;-76
2022/08/29 12:15:26;;;;;;;3.90;2.88;;;;;;;;;;4804948;29;20411;-76
2022/08/29 12:17:57;;;;;;;3.40;2.97;;;;;;;;;;4806065;29;20057;-75
2022/08/29 12:20:30;;;;;;;7.38;3.00;;;;;;;;;;4806332;29;20023;-76
2022/08/29 12:23:05;;;;;;;9.18;3.00;;;;;;;;;;4806067;29;20404;-75
2022/08/29 12:25:46;;;;;;;6.93;3.10;;;;;;;;;;4805786;29;20041;-76
2022/08/29 12:28:16;;;;;;;6.55;3.17;;;;;;;;;;4805905;29;20038;-78
2022/08/29 12:30:44;;;;;;;4.20;3.10;;;;;;;;;;4806230;29;20041;-76
2022/08/29 12:33:23;;;;;;;5.63;2.90;;;;;;;;;;4806130;29;20480;-76
2022/08/29 12:36:00;;;;;;;3.00;2.75;;;;;;;;;;4804640;29;20512;-76
2022/08/29 12:38:37;;;;;;;3.25;2.95;;;;;;;;;;4805986;29;20078;-76
2022/08/29 12:41:03;;;;;;;4.07;3.67;;;;;;;;;;4805955;29;20041;-76
2022/08/29 12:43:39;;;;;;;4.70;2.97;;;;;;;;;;4805684;29;20023;-76
2022/08/29 12:46:09;;;;;;;9.18;3.40;;;;;;;;;;4819528;29;20027;-76
2022/08/29 12:48:40;;;;;;;6.10;3.13;;;;;;;;;;4805873;29;20023;-76
2022/08/29 12:51:08;;;;;;;5.15;3.15;;;;;;;;;;4805052;29;20071;-76
2022/08/29 12:53:35;;;;;;;6.70;3.38;;;;;;;;;;4806004;29;20027;-77
2022/08/29 12:56:11;;;;;;;6.57;3.60;;;;;;;;;;4805764;29;20047;-76
2022/08/29 12:58:37;;;;;;;6.32;3.55;;;;;;;;;;4805758;29;20522;-77
2022/08/29 13:01:09;;;;;;;6.40;3.35;;;;;;;;;;4805784;29;20037;-74
2022/08/29 13:03:36;;;;;;;3.13;2.83;;;;;;;;;;4804706;29;20037;-76
2022/08/29 13:06:04;;;;;;;4.03;3.40;;;;;;;;;;4804765;29;20043;-76
2022/08/29 13:08:32;;;;;;;3.83;3.13;;;;;;;;;;4804415;29;20045;-76
2022/08/29 13:11:00;;;;;;;5.10;3.10;;;;;;;;;;4805721;29;20037;-76
2022/08/29 13:13:27;;;;;;;6.25;3.13;;;;;;;;;;4805565;29;20061;-76
2022/08/29 13:15:55;;;;;;;4.90;3.28;;;;;;;;;;4805263;29;20047;-75
2022/08/29 13:18:22;;;;;;;7.97;3.67;;;;;;;;;;4805194;29;20125;-75
2022/08/29 13:21:00;;;;;;;7.10;3.38;;;;;;;;;;4804913;29;20420;-75
2022/08/29 13:23:28;;;;;;;4.40;3.05;;;;;;;;;;4805687;29;20039;-76
2022/08/29 13:26:08;;;;;;;4.70;3.67;;;;;;;;;;4805239;29;20039;-77
2022/08/29 13:28:37;;;;;;;8.45;3.00;;;;;;;;;;4805502;29;20043;-76
2022/08/29 13:31:08;;;;;;;10.82;3.42;;;;;;;;;;4805197;29;20156;-76
2022/08/29 13:33:36;;;;;;;7.80;3.00;;;;;;;;;;4805301;29;20523;-77
2022/08/29 13:36:21;;;;;;;6.20;3.33;;;;;;;;;;4804642;29;20039;-77
2022/08/29 13:39:07;;;;;;;4.65;3.03;;;;;;;;;;4797501;29;20042;-77
2022/08/29 13:41:33;;;;;;;5.82;3.05;;;;;;;;;;4804921;29;20027;-76
2022/08/29 13:44:00;;;;;;;10.07;3.45;;;;;;;;;;4803970;29;20049;-77
2022/08/29 13:46:29;;;;;;;4.68;3.13;;;;;;;;;;4804552;29;20044;-76
2022/08/29 13:49:02;;;;;;;6.05;2.80;;;;;;;;;;4804907;29;20030;-77
2022/08/29 13:51:28;;;;;;;16.20;2.97;;;;;;;;;;4805314;29;20031;-76
2022/08/29 13:53:55;;;;;;;6.13;3.35;;;;;;;;;;4804676;29;20545;-77
2022/08/29 13:56:22;;;;;;;6.43;2.95;;;;;;;;;;4805103;29;20518;-76
2022/08/29 13:58:50;;;;;;;5.13;3.13;;;;;;;;;;4804978;29;20027;-76
2022/08/29 14:01:21;;;;;;;5.80;2.83;;;;;;;;;;4804691;29;20045;-77
2022/08/29 14:03:51;;;;;;;5.38;3.28;;;;;;;;;;4804697;29;20031;-77
2022/08/29 14:06:19;;;;;;;6.93;3.50;;;;;;;;;;4805231;29;20031;-76
2022/08/29 14:08:45;;;;;;;5.20;2.90;;;;;;;;;;4804967;29;20070;-76
2022/08/29 14:11:12;;;;;;;5.93;3.08;;;;;;;;;;4802535;29;20035;-76
2022/08/29 14:13:38;;;;;;;3.25;2.60;;;;;;;;;;4803859;29;20027;-76
2022/08/29 14:16:04;;;;;;;3.88;3.00;;;;;;;;;;4803556;29;20039;-76
2022/08/29 14:18:31;;;;;;;11.18;3.20;;;;;;;;;;4803763;29;20049;-76
2022/08/29 14:20:57;;;;;;;6.68;2.92;;;;;;;;;;4804375;29;20031;-76
2022/08/29 14:23:24;;;;;;;3.33;2.78;;;;;;;;;;4804470;29;20452;-76
2022/08/29 14:25:50;;;;;;;3.15;2.72;;;;;;;;;;4804797;29;20034;-77
2022/08/29 14:28:17;;;;;;;4.03;2.80;;;;;;;;;;4804434;29;20037;-76
2022/08/29 14:30:43;;;;;;;3.65;2.80;;;;;;;;;;4804353;29;20378;-76
2022/08/29 14:33:09;;;;;;;3.13;2.60;;;;;;;;;;4804314;29;20102;-76
2022/08/29 14:35:36;;;;;;;4.45;2.90;;;;;;;;;;4802140;29;20030;-77
2022/08/29 14:38:04;;;;;;;4.22;2.90;;;;;;;;;;4804297;29;20030;-76
2022/08/29 14:40:31;;;;;;;2.78;2.50;;;;;;;;;;4804410;29;20042;-76
2022/08/29 14:42:58;;;;;;;4.85;2.90;;;;;;;;;;4804222;29;20057;-76
2022/08/29 14:45:25;;;;;;;3.70;2.75;;;;;;;;;;4804268;29;20034;-77
2022/08/29 14:47:51;;;;;;;6.32;2.78;;;;;;;;;;4818181;29;20034;-76
2022/08/29 14:50:18;;;;;;;3.42;2.80;;;;;;;;;;4804260;29;20035;-76
2022/08/29 14:52:44;;;;;;;3.95;2.60;;;;;;;;;;4804060;29;20039;-77
2022/08/29 14:55:11;;;;;;;8.93;2.90;;;;;;;;;;4803905;29;20060;-77
2022/08/29 14:57:38;;;;;;;6.05;2.88;;;;;;;;;;4804353;29;20033;-76
2022/08/29 15:00:07;;;;;;;2.97;2.65;;;;;;;;;;4804479;29;20065;-77
2022/08/29 15:02:33;;;;;;;5.60;3.00;;;;;;;;;;4803633;29;20436;-77
2022/08/29 15:05:00;;;;;;;4.40;2.90;;;;;;;;;;4804321;29;20045;-76
2022/08/29 15:07:26;;;;;;;7.22;2.70;;;;;;;;;;4805375;29;20031;-77
2022/08/29 15:09:52;;;;;;;7.10;2.50;;;;;;;;;;4807184;29;20030;-77
2022/08/29 15:12:20;;;;;;;4.28;2.50;;;;;;;;;;4806993;29;20027;-76
2022/08/29 15:14:46;;;;;;;4.55;2.58;;;;;;;;;;4807240;29;20097;-77
2022/08/29 15:17:13;;;;;;;2.53;2.33;;;;;;;;;;4805450;29;20055;-77
2022/08/29 15:19:40;;;;;;;3.85;2.33;;;;;;;;;;4806676;29;20027;-77
2022/08/29 15:22:06;;;;;;;3.70;2.22;;;;;;;;;;4803815;29;20039;-77
2022/08/29 15:24:32;;;;;;;6.10;2.45;;;;;;;;;;4807618;29;20514;-76
2022/08/29 15:26:59;;;;;;;3.30;2.67;;;;;;;;;;4806842;29;20038;-77
2022/08/29 15:29:26;;;;;;;3.65;2.47;;;;;;;;;;4807415;29;20083;-76
2022/08/29 15:31:55;;;;;;;8.80;2.53;;;;;;;;;;4807163;29;20401;-77
2022/08/29 15:34:23;;;;;;;3.97;2.22;;;;;;;;;;4807786;29;20023;-71
2022/08/29 15:36:49;;;;;;;3.67;2.40;;;;;;;;;;4806737;29;20042;-72
2022/08/29 15:39:16;;;;;;;3.55;2.50;;;;;;;;;;4807695;29;20035;-72
2022/08/29 15:41:42;;;;;;;2.78;2.58;;;;;;;;;;4807596;29;20033;-71
2022/08/29 15:44:08;;;;;;;5.05;2.13;;;;;;;;;;4806792;29;20031;-72
2022/08/29 15:46:35;;;;;;;6.40;2.38;;;;;;;;;;4806448;29;20031;-72
2022/08/29 15:49:01;;;;;;;8.88;2.38;;;;;;;;;;4807193;29;20030;-72
2022/08/29 15:51:27;;;;;;;3.65;2.25;;;;;;;;;;4807433;29;20083;-72
2022/08/29 15:53:54;;;;;;;3.00;2.30;;;;;;;;;;4807209;29;20045;-72
2022/08/29 15:56:20;;;;;;;3.30;2.25;;;;;;;;;;4806561;29;20049;-72
2022/08/29 15:58:48;;;;;;;3.00;2.35;;;;;;;;;;4806144;29;20026;-72
2022/08/29 16:01:15;;;;;;;4.35;2.40;;;;;;;;;;4806222;29;20041;-72
2022/08/29 16:03:42;;;;;;;4.55;2.67;;;;;;;;;;4806743;29;20025;-72
2022/08/29 16:06:09;;;;;;;4.35;2.55;;;;;;;;;;4806813;29;20416;-72
2022/08/29 16:08:36;;;;;;;3.83;2.30;;;;;;;;;;4807144;29;20027;-72
2022/08/29 16:11:03;;;;;;;3.85;2.17;;;;;;;;;;4807272;29;20042;-72
2022/08/29 16:13:29;;;;;;;4.35;2.33;;;;;;;;;;4806881;29;20027;-72
2022/08/29 16:15:56;;;;;;;5.70;2.15;;;;;;;;;;4806733;29;20060;-72
2022/08/29 16:18:23;;;;;;;3.78;2.63;;;;;;;;;;4806489;29;20047;-72
2022/08/29 16:20:49;;;;;;;5.18;2.22;;;;;;;;;;4806580;29;20030;-72
2022/08/29 16:23:15;;;;;;;3.70;2.20;;;;;;;;;;4806908;29;20033;-72
2022/08/29 16:25:42;;;;;;;7.10;2.25;;;;;;;;;;4806637;29;20037;-73
2022/08/29 16:28:08;;;;;;;3.70;2.35;;;;;;;;;;4806519;29;20031;-72
2022/08/29 16:30:34;;;;;;;4.45;2.08;;;;;;;;;;4806603;29;20504;-72
2022/08/29 16:33:01;;;;;;;2.22;1.90;;;;;;;;;;4806400;29;20075;-72
2022/08/29 16:35:27;;;;;;;3.88;2.00;;;;;;;;;;4806522;29;20053;-72
2022/08/29 16:37:54;;;;;;;4.28;2.00;;;;;;;;;;4806581;29;20079;-72
2022/08/29 16:40:21;;;;;;;3.35;2.28;;;;;;;;;;4806518;29;20026;-72
2022/08/29 16:42:47;;;;;;;5.88;2.20;;;;;;;;;;4806287;29;20031;-72
2022/08/29 16:45:14;;;;;;;2.55;2.00;;;;;;;;;;4806664;29;20034;-72
2022/08/29 16:47:41;;;;;;;5.55;2.33;;;;;;;;;;4806375;29;20388;-72
2022/08/29 16:50:09;;;;;;;4.20;2.30;;;;;;;;;;4806229;29;20404;-72
2022/08/29 16:52:35;;;;;;;2.78;1.88;;;;;;;;;;4806250;29;20431;-72
2022/08/29 16:55:03;;;;;;;2.28;2.03;;;;;;;;;;4805984;29;20038;-72
2022/08/29 16:57:29;;;;;;;5.28;2.22;;;;;;;;;;4805989;29;20033;-72
2022/08/29 16:59:55;;;;;;;6.95;2.00;;;;;;;;;;4804901;29;20053;-73
2022/08/29 17:02:22;;;;;;;4.75;2.40;;;;;;;;;;4806172;29;20034;-72
2022/08/29 17:04:48;;;;;;;2.90;2.08;;;;;;;;;;4806139;29;20083;-72
2022/08/29 17:07:15;;;;;;;3.35;2.35;;;;;;;;;;4806286;29;20027;-72
2022/08/29 17:17:01;;;;;;;5.75;2.50;;;;;;;;;;4805493;29;20062;-71
2022/08/29 17:19:28;;;;;;;3.45;2.17;;;;;;;;;;4805776;29;20041;-71
2022/08/29 17:21:54;;;;;;;7.63;2.40;;;;;;;;;;4805496;29;20382;-71
2022/08/29 17:24:21;;;;;;;6.85;2.10;;;;;;;;;;4805640;29;20033;-72
2022/08/29 17:26:47;;;;;;;2.65;2.05;;;;;;;;;;4805267;29;20423;-71
2022/08/29 17:29:14;;;;;;;4.03;2.08;;;;;;;;;;4805539;29;20023;-71
2022/08/29 17:31:40;;;;;;;3.78;2.10;;;;;;;;;;4805205;29;20082;-72
2022/08/29 17:34:08;;;;;;;2.88;2.03;;;;;;;;;;4805495;29;20545;-72
2022/08/29 17:36:35;;;;;;;5.88;2.10;;;;;;;;;;4805417;29;20420;-70
2022/08/29 17:39:02;;;;;;;3.85;2.10;;;;;;;;;;4805412;29;20595;-71
2022/08/29 17:41:28;;;;;;;3.33;2.40;;;;;;;;;;4805271;29;20041;-71
2022/08/29 17:43:54;;;;;;;6.32;1.98;;;;;;;;;;4805663;29;20067;-71
2022/08/29 17:46:21;;;;;;;5.22;2.10;;;;;;;;;;4805270;29;20037;-72
2022/08/29 17:48:47;;;;;;;5.00;2.00;;;;;;;;;;4805280;29;20034;-71
2022/08/29 17:51:14;;;;;;;5.32;2.42;;;;;;;;;;4805272;29;20042;-72
2022/08/29 17:53:41;;;;;;;3.58;2.10;;;;;;;;;;4805174;29;20029;-71
2022/08/29 17:56:14;;;;;;;2.22;2.03;;;;;;;;;;4804944;29;20047;-72
2022/08/29 17:58:41;;;;;;;3.30;2.05;;;;;;;;;;4805272;29;20027;-72
2022/08/29 18:01:08;;;;;;;4.85;2.30;;;;;;;;;;4805398;29;20031;-72
2022/08/29 18:03:35;;;;;;;3.42;1.88;;;;;;;;;;4805077;29;20019;-72
2022/08/29 18:06:01;;;;;;;3.08;2.33;;;;;;;;;;4805147;29;20031;-72
2022/08/29 18:08:28;;;;;;;4.20;1.80;;;;;;;;;;4804986;29;20039;-72
2022/08/29 18:10:55;;;;;;;3.65;2.13;;;;;;;;;;4804613;29;20561;-71
2022/08/29 18:13:21;;;;;;;3.05;2.00;;;;;;;;;;4805203;29;20042;-72
2022/08/29 18:15:47;;;;;;;4.07;1.90;;;;;;;;;;4804716;29;20061;-72
2022/08/29 18:18:14;;;;;;;3.58;1.67;;;;;;;;;;4804930;29;20065;-72
2022/08/29 18:20:40;;;;;;;5.68;1.60;;;;;;;;;;4805236;29;20043;-72
2022/08/29 18:23:07;;;;;;;3.80;1.90;;;;;;;;;;4805025;29;20037;-72
2022/08/29 18:25:33;;;;;;;2.53;1.75;;;;;;;;;;4804696;29;20400;-72
2022/08/29 18:27:59;;;;;;;7.63;2.08;;;;;;;;;;4805008;29;20193;-73
2022/08/29 18:30:26;;;;;;;3.03;1.90;;;;;;;;;;4804837;29;20031;-72
2022/08/29 18:32:53;;;;;;;3.88;1.90;;;;;;;;;;4804923;29;20408;-72
2022/08/29 18:35:20;;;;;;;4.13;1.75;;;;;;;;;;4804711;29;20027;-72
2022/08/29 18:37:46;;;;;;;4.57;2.00;;;;;;;;;;4804978;29;20071;-72
2022/08/29 18:40:13;;;;;;;3.67;1.60;;;;;;;;;;4804546;29;20417;-72
2022/08/29 18:42:39;;;;;;;5.70;1.80;;;;;;;;;;4806522;29;20030;-73
2022/08/29 18:45:06;;;;;;;4.07;1.85;;;;;;;;;;4808466;29;20546;-72
2022/08/29 18:47:32;;;;;;;2.80;1.80;;;;;;;;;;4808181;29;20412;-72
2022/08/29 18:52:44;;;;;;;5.25;1.73;;;;;;;;;;4808163;29;20511;-72
2022/08/29 18:55:11;;;;;;;2.90;1.63;;;;;;;;;;4807925;29;20035;-72
2022/08/29 18:57:37;;;;;;;4.30;1.70;;;;;;;;;;4806966;29;20047;-72
2022/08/29 19:00:05;;;;;;;6.70;1.90;;;;;;;;;;4808136;29;20033;-72
2022/08/29 19:02:31;;;;;;;4.45;1.80;;;;;;;;;;4807805;29;20433;-72
2022/08/29 19:04:58;;;;;;;7.38;1.90;;;;;;;;;;4807955;29;20026;-72
2022/08/29 19:07:24;;;;;;;4.63;1.70;;;;;;;;;;4807809;29;20099;-72
2022/08/29 19:09:51;;;;;;;6.07;1.90;;;;;;;;;;4807905;29;20385;-72
2022/08/29 19:12:18;;;;;;;8.15;1.63;;;;;;;;;;4808218;29;20035;-72
2022/08/29 19:14:45;;;;;;;9.20;1.90;;;;;;;;;;4807916;29;20026;-72
2022/08/29 19:17:11;;;;;;;5.20;1.60;;;;;;;;;;4807726;29;20050;-72
2022/08/29 19:22:23;;;;;;;5.32;2.20;;;;;;;;;;4807240;29;20027;-73
2022/08/29 19:24:49;;;;;;;7.45;2.22;;;;;;;;;;4807666;29;20027;-72
2022/08/29 19:27:16;;;;;;;4.30;1.67;;;;;;;;;;4807867;29;20389;-72
2022/08/29 19:29:42;;;;;;;5.80;2.10;;;;;;;;;;4807770;29;20023;-72
2022/08/29 19:32:08;;;;;;;5.88;1.90;;;;;;;;;;4807636;29;20488;-72
2022/08/29 19:34:35;;;;;;;7.20;1.83;;;;;;;;;;4807886;29;20034;-72
2022/08/29 19:37:03;;;;;;;5.13;1.75;;;;;;;;;;4807078;29;20038;-72
2022/08/29 19:39:29;;;;;;;7.07;2.17;;;;;;;;;;4807438;29;20023;-72
2022/08/29 19:41:55;;;;;;;4.88;1.83;;;;;;;;;;4807466;29;20043;-72
2022/08/29 19:44:22;;;;;;;4.82;1.60;;;;;;;;;;4807397;29;20382;-72
2022/08/29 19:46:48;;;;;;;4.07;1.77;;;;;;;;;;4807791;29;20027;-72
2022/08/29 19:49:14;;;;;;;3.65;1.70;;;;;;;;;;4807258;29;20453;-72
2022/08/29 19:51:41;;;;;;;4.57;2.03;;;;;;;;;;4806895;29;20036;-72
2022/08/29 19:54:07;;;;;;;4.50;1.80;;;;;;;;;;4807073;29;20099;-72
2022/08/29 19:56:34;;;;;;;3.88;1.48;;;;;;;;;;4807114;29;20050;-72
2022/08/29 19:59:00;;;;;;;6.03;1.70;;;;;;;;;;4807131;29;20481;-72
2022/08/29 20:01:26;;;;;;;8.05;1.80;;;;;;;;;;4807206;29;20035;-72
2022/08/29 20:03:53;;;;;;;4.65;1.90;;;;;;;;;;4807264;29;20030;-72
2022/08/29 20:06:19;;;;;;;4.38;1.90;;;;;;;;;;4806462;29;20034;-72
2022/08/29 20:08:46;;;;;;;2.75;1.85;;;;;;;;;;4805818;29;20041;-73
2022/08/29 20:11:13;;;;;;;3.38;1.77;;;;;;;;;;4807028;29;20388;-72
2022/08/29 20:13:40;;;;;;;12.13;2.22;;;;;;;;;;4805542;29;20584;-72
2022/08/29 20:16:10;;;;;;;4.05;2.10;;;;;;;;;;4807008;29;20034;-72
2022/08/29 20:18:36;;;;;;;3.30;2.33;;;;;;;;;;4806651;29;20057;-72
2022/08/29 20:21:03;;;;;;;6.22;2.60;;;;;;;;;;4806278;29;20035;-72
2022/08/29 20:23:30;;;;;;;3.75;2.20;;;;;;;;;;4806704;29;20034;-72
2022/08/29 20:25:58;;;;;;;5.00;2.08;;;;;;;;;;4806582;29;20029;-72
2022/08/29 20:28:25;;;;;;;5.47;2.20;;;;;;;;;;4806789;29;20027;-72
2022/08/29 20:30:52;;;;;;;7.50;2.30;;;;;;;;;;4806581;29;20480;-72
2022/08/29 20:33:18;;;;;;;7.53;2.45;;;;;;;;;;4806955;29;20035;-72
2022/08/29 20:38:31;;;;;;;4.13;2.10;;;;;;;;;;4806342;29;20407;-72
2022/08/29 20:40:59;;;;;;;4.47;2.25;;;;;;;;;;4806401;29;20445;-72
2022/08/29 20:43:25;;;;;;;16.42;1.85;;;;;;;;;;4806449;29;20404;-72
2022/08/29 20:45:52;;;;;;;5.70;1.90;;;;;;;;;;4804989;29;20038;-72
2022/08/29 20:48:18;;;;;;;7.57;2.10;;;;;;;;;;4806257;29;20396;-72
2022/08/29 20:50:45;;;;;;;8.30;1.67;;;;;;;;;;4805905;29;20057;-72
2022/08/29 20:53:12;;;;;;;15.50;1.83;;;;;;;;;;4806095;29;20094;-72
2022/08/29 20:55:41;;;;;;;9.65;2.08;;;;;;;;;;4805951;29;20049;-71
2022/08/29 20:58:07;;;;;;;11.75;2.10;;;;;;;;;;4806147;29;20485;-72
2022/08/29 21:00:34;;;;;;;7.28;1.70;;;;;;;;;;4806308;29;20037;-72
2022/08/29 21:05:45;;;;;;;8.90;1.67;;;;;;;;;;4804755;29;20091;-71
2022/08/29 21:08:13;;;;;;;3.13;1.70;;;;;;;;;;4805995;29;20031;-71
2022/08/29 21:10:40;;;;;;;6.82;1.50;;;;;;;;;;4805901;29;20042;-72
2022/08/29 21:13:08;;;;;;;9.48;1.80;;;;;;;;;;4805949;29;20043;-72
2022/08/29 21:15:35;;;;;;;6.45;1.50;;;;;;;;;;4805666;29;20404;-72
2022/08/29 21:18:01;;;;;;;12.35;1.70;;;;;;;;;;4805398;29;20081;-71
2022/08/29 21:20:27;;;;;;;10.18;1.52;;;;;;;;;;4805444;29;20023;-71
2022/08/29 21:22:54;;;;;;;3.55;1.60;;;;;;;;;;4805858;29;20042;-72
2022/08/29 21:25:20;;;;;;;6.40;1.80;;;;;;;;;;4806055;29;20042;-71
2022/08/29 21:27:46;;;;;;;5.75;1.77;;;;;;;;;;4805670;29;20506;-71
2022/08/29 21:30:13;;;;;;;5.18;1.58;;;;;;;;;;4805515;29;20079;-71